Terminal Aerodrome Forecast
Issued by NWS Atlanta, GA

Home | Current Version | Previous Version | Text Only | Print | Product List | Glossary On
Versions: 1 2 3 4 5 6 7 8 9 10 11 12 13 14
500
FTUS42 KFFC 131937 AAA
TAFMCN
TAF AMD
KMCN 131937Z 1320/1418 32010G17KT P6SM SKC
     FM140000 34004KT P6SM SKC
     FM141000 05004KT P6SM SCT150
     FM141200 10008KT P6SM BKN150=

USA.gov is the U.S. government's official web portal to all federal, state and local government web resources and services.